sensor_id;sensor_type;location;lat;lon;timestamp;pressure;altitude;pressure_sealevel;temperature;humidity
55490;BME280;44029;52.956;4.772;2023-01-19T00:00:42;99794.66;;;6.04;100.00
55490;BME280;44029;52.956;4.772;2023-01-19T00:03:08;99792.91;;;5.69;100.00
55490;BME280;44029;52.956;4.772;2023-01-19T00:05:41;99795.59;;;5.97;100.00
55490;BME280;44029;52.956;4.772;2023-01-19T00:08:07;99784.53;;;5.87;100.00
55490;BME280;44029;52.956;4.772;2023-01-19T00:10:46;99779.81;;;6.11;100.00
55490;BME280;44029;52.956;4.772;2023-01-19T00:13:13;99790.84;;;6.05;100.00
55490;BME280;44029;52.956;4.772;2023-01-19T00:15:39;99782.09;;;6.03;100.00
55490;BME280;44029;52.956;4.772;2023-01-19T00:18:04;99781.28;;;6.19;100.00
55490;BME280;44029;52.956;4.772;2023-01-19T00:20:30;99792.91;;;6.14;100.00
55490;BME280;44029;52.956;4.772;2023-01-19T00:23:00;99789.22;;;6.21;100.00
55490;BME280;44029;52.956;4.772;2023-01-19T00:25:25;99791.50;;;6.29;100.00
55490;BME280;44029;52.956;4.772;2023-01-19T00:27:50;99792.91;;;6.31;100.00
55490;BME280;44029;52.956;4.772;2023-01-19T00:30:16;99806.09;;;6.23;100.00
55490;BME280;44029;52.956;4.772;2023-01-19T00:32:41;99801.72;;;6.22;100.00
55490;BME280;44029;52.956;4.772;2023-01-19T00:35:07;99809.16;;;6.26;100.00
55490;BME280;44029;52.956;4.772;2023-01-19T00:37:32;99809.72;;;6.28;100.00
55490;BME280;44029;52.956;4.772;2023-01-19T00:39:58;99816.16;;;6.39;100.00
55490;BME280;44029;52.956;4.772;2023-01-19T00:42:23;99814.44;;;6.50;100.00
55490;BME280;44029;52.956;4.772;2023-01-19T00:47:34;99825.38;;;6.21;100.00
55490;BME280;44029;52.956;4.772;2023-01-19T00:49:59;99834.94;;;6.24;100.00
55490;BME280;44029;52.956;4.772;2023-01-19T00:52:25;99827.63;;;6.24;100.00
55490;BME280;44029;52.956;4.772;2023-01-19T00:54:50;99849.50;;;6.00;100.00
55490;BME280;44029;52.956;4.772;2023-01-19T00:57:16;99854.34;;;5.98;100.00
55490;BME280;44029;52.956;4.772;2023-01-19T00:59:43;99858.00;;;6.04;100.00
55490;BME280;44029;52.956;4.772;2023-01-19T01:02:08;99861.38;;;6.11;100.00
55490;BME280;44029;52.956;4.772;2023-01-19T01:04:35;99859.91;;;6.04;100.00
55490;BME280;44029;52.956;4.772;2023-01-19T01:07:01;99872.81;;;5.85;100.00
55490;BME280;44029;52.956;4.772;2023-01-19T01:09:26;99867.03;;;5.81;100.00
55490;BME280;44029;52.956;4.772;2023-01-19T01:11:52;99902.22;;;5.59;100.00
55490;BME280;44029;52.956;4.772;2023-01-19T01:14:17;99914.22;;;4.87;100.00
55490;BME280;44029;52.956;4.772;2023-01-19T01:16:43;99918.94;;;4.92;100.00
55490;BME280;44029;52.956;4.772;2023-01-19T01:19:08;99920.47;;;4.88;100.00
55490;BME280;44029;52.956;4.772;2023-01-19T01:21:33;99931.69;;;5.03;100.00
55490;BME280;44029;52.956;4.772;2023-01-19T01:24:00;99934.75;;;5.18;100.00
55490;BME280;44029;52.956;4.772;2023-01-19T01:26:25;99949.28;;;5.24;100.00
55490;BME280;44029;52.956;4.772;2023-01-19T01:28:50;99949.03;;;5.26;100.00
55490;BME280;44029;52.956;4.772;2023-01-19T01:31:16;99930.47;;;5.46;100.00
55490;BME280;44029;52.956;4.772;2023-01-19T01:33:41;99931.16;;;5.53;100.00
55490;BME280;44029;52.956;4.772;2023-01-19T01:36:07;99925.38;;;5.61;100.00
55490;BME280;44029;52.956;4.772;2023-01-19T01:38:32;99923.88;;;5.82;100.00
55490;BME280;44029;52.956;4.772;2023-01-19T01:40:57;99925.09;;;5.75;100.00
55490;BME280;44029;52.956;4.772;2023-01-19T01:43:41;99898.47;;;5.89;100.00
55490;BME280;44029;52.956;4.772;2023-01-19T01:46:06;99902.47;;;5.86;100.00
55490;BME280;44029;52.956;4.772;2023-01-19T01:48:32;99900.09;;;6.02;100.00
55490;BME280;44029;52.956;4.772;2023-01-19T01:51:15;99903.94;;;6.34;100.00
55490;BME280;44029;52.956;4.772;2023-01-19T01:56:23;99927.91;;;6.21;100.00
55490;BME280;44029;52.956;4.772;2023-01-19T01:58:50;99918.84;;;5.74;100.00
55490;BME280;44029;52.956;4.772;2023-01-19T02:01:15;99921.78;;;5.73;100.00
55490;BME280;44029;52.956;4.772;2023-01-19T02:04:17;99914.03;;;5.93;100.00
55490;BME280;44029;52.956;4.772;2023-01-19T02:06:46;99924.63;;;6.07;100.00
55490;BME280;44029;52.956;4.772;2023-01-19T02:09:33;99920.09;;;6.24;100.00
55490;BME280;44029;52.956;4.772;2023-01-19T02:12:18;99922.13;;;6.17;100.00
55490;BME280;44029;52.956;4.772;2023-01-19T02:15:02;99909.78;;;6.26;100.00
55490;BME280;44029;52.956;4.772;2023-01-19T02:17:28;99918.78;;;6.44;100.00
55490;BME280;44029;52.956;4.772;2023-01-19T02:19:53;99901.97;;;6.47;100.00
55490;BME280;44029;52.956;4.772;2023-01-19T02:22:23;99905.28;;;6.66;100.00
55490;BME280;44029;52.956;4.772;2023-01-19T02:24:52;99912.78;;;6.58;100.00
55490;BME280;44029;52.956;4.772;2023-01-19T02:27:18;99901.06;;;6.58;100.00
55490;BME280;44029;52.956;4.772;2023-01-19T02:29:44;99899.16;;;6.58;100.00
55490;BME280;44029;52.956;4.772;2023-01-19T02:32:09;99914.75;;;6.63;100.00
55490;BME280;44029;52.956;4.772;2023-01-19T02:34:35;99893.66;;;6.70;100.00
55490;BME280;44029;52.956;4.772;2023-01-19T02:37:05;99901.00;;;6.87;100.00
55490;BME280;44029;52.956;4.772;2023-01-19T02:39:43;99908.72;;;6.95;100.00
55490;BME280;44029;52.956;4.772;2023-01-19T02:42:17;99910.63;;;6.94;100.00
55490;BME280;44029;52.956;4.772;2023-01-19T02:44:46;99914.75;;;6.97;100.00
55490;BME280;44029;52.956;4.772;2023-01-19T02:47:12;99922.81;;;6.92;100.00
55490;BME280;44029;52.956;4.772;2023-01-19T02:49:38;99924.97;;;7.07;100.00
55490;BME280;44029;52.956;4.772;2023-01-19T02:52:04;99931.81;;;7.09;100.00
55490;BME280;44029;52.956;4.772;2023-01-19T03:01:11;99948.66;;;7.06;100.00
55490;BME280;44029;52.956;4.772;2023-01-19T03:03:39;99945.59;;;7.03;100.00
55490;BME280;44029;52.956;4.772;2023-01-19T03:06:46;99949.81;;;6.93;100.00
55490;BME280;44029;52.956;4.772;2023-01-19T03:09:21;99954.59;;;6.86;100.00
55490;BME280;44029;52.956;4.772;2023-01-19T03:14:36;99952.13;;;6.85;100.00
55490;BME280;44029;52.956;4.772;2023-01-19T03:17:06;99944.88;;;6.90;100.00
55490;BME280;44029;52.956;4.772;2023-01-19T03:19:38;99950.25;;;6.85;100.00
55490;BME280;44029;52.956;4.772;2023-01-19T03:22:14;99969.69;;;6.94;100.00
55490;BME280;44029;52.956;4.772;2023-01-19T03:24:43;99976.88;;;6.83;100.00
55490;BME280;44029;52.956;4.772;2023-01-19T03:27:21;99973.50;;;6.93;100.00
55490;BME280;44029;52.956;4.772;2023-01-19T03:29:52;99969.44;;;6.95;100.00
55490;BME280;44029;52.956;4.772;2023-01-19T03:32:22;99973.84;;;6.96;100.00
55490;BME280;44029;52.956;4.772;2023-01-19T03:34:55;99986.13;;;6.82;100.00
55490;BME280;44029;52.956;4.772;2023-01-19T03:37:24;99985.38;;;6.87;100.00
55490;BME280;44029;52.956;4.772;2023-01-19T03:39:50;100001.63;;;6.82;100.00
55490;BME280;44029;52.956;4.772;2023-01-19T03:42:16;100001.38;;;6.83;100.00
55490;BME280;44029;52.956;4.772;2023-01-19T03:44:44;100004.13;;;7.00;100.00
55490;BME280;44029;52.956;4.772;2023-01-19T03:47:10;100011.13;;;7.13;100.00
55490;BME280;44029;52.956;4.772;2023-01-19T03:49:40;100015.25;;;6.99;100.00
55490;BME280;44029;52.956;4.772;2023-01-19T03:52:07;100015.34;;;6.87;100.00
55490;BME280;44029;52.956;4.772;2023-01-19T03:54:32;100031.81;;;6.97;100.00
55490;BME280;44029;52.956;4.772;2023-01-19T03:56:58;100021.69;;;6.92;100.00
55490;BME280;44029;52.956;4.772;2023-01-19T03:59:23;100028.94;;;6.87;100.00
55490;BME280;44029;52.956;4.772;2023-01-19T04:01:48;100024.75;;;6.96;100.00
55490;BME280;44029;52.956;4.772;2023-01-19T04:04:14;100030.78;;;6.98;100.00
55490;BME280;44029;52.956;4.772;2023-01-19T04:06:41;100027.47;;;6.96;100.00
55490;BME280;44029;52.956;4.772;2023-01-19T04:09:06;100047.31;;;6.80;100.00
55490;BME280;44029;52.956;4.772;2023-01-19T04:11:32;100032.66;;;6.97;100.00
55490;BME280;44029;52.956;4.772;2023-01-19T04:13:58;100040.06;;;6.85;100.00
55490;BME280;44029;52.956;4.772;2023-01-19T04:16:23;100047.44;;;7.02;100.00
55490;BME280;44029;52.956;4.772;2023-01-19T04:18:48;100052.38;;;6.88;100.00
55490;BME280;44029;52.956;4.772;2023-01-19T04:21:15;100051.28;;;6.72;100.00
55490;BME280;44029;52.956;4.772;2023-01-19T04:23:40;100054.31;;;6.75;100.00
55490;BME280;44029;52.956;4.772;2023-01-19T04:26:06;100070.06;;;6.73;100.00
55490;BME280;44029;52.956;4.772;2023-01-19T04:28:33;100066.66;;;6.66;100.00
55490;BME280;44029;52.956;4.772;2023-01-19T04:30:59;100077.81;;;6.65;100.00
55490;BME280;44029;52.956;4.772;2023-01-19T04:33:26;100070.22;;;6.67;100.00
55490;BME280;44029;52.956;4.772;2023-01-19T04:35:52;100070.72;;;6.64;100.00
55490;BME280;44029;52.956;4.772;2023-01-19T04:38:18;100065.19;;;6.75;100.00
55490;BME280;44029;52.956;4.772;2023-01-19T04:40:44;100081.34;;;6.65;100.00
55490;BME280;44029;52.956;4.772;2023-01-19T04:43:10;100080.66;;;6.58;100.00
55490;BME280;44029;52.956;4.772;2023-01-19T04:45:35;100086.69;;;6.60;100.00
55490;BME280;44029;52.956;4.772;2023-01-19T04:48:01;100082.69;;;6.63;100.00
55490;BME280;44029;52.956;4.772;2023-01-19T04:50:29;100082.22;;;6.54;100.00
55490;BME280;44029;52.956;4.772;2023-01-19T04:52:54;100089.22;;;6.50;100.00
55490;BME280;44029;52.956;4.772;2023-01-19T04:55:21;100096.66;;;6.54;100.00
55490;BME280;44029;52.956;4.772;2023-01-19T04:57:46;100089.91;;;6.57;100.00
55490;BME280;44029;52.956;4.772;2023-01-19T05:00:12;100091.66;;;6.63;100.00
55490;BME280;44029;52.956;4.772;2023-01-19T05:02:37;100098.34;;;6.44;100.00
55490;BME280;44029;52.956;4.772;2023-01-19T05:05:03;100099.66;;;6.41;100.00
55490;BME280;44029;52.956;4.772;2023-01-19T05:07:29;100095.66;;;6.32;100.00
55490;BME280;44029;52.956;4.772;2023-01-19T05:09:54;100097.75;;;6.42;100.00
55490;BME280;44029;52.956;4.772;2023-01-19T05:12:19;100101.44;;;6.35;100.00
55490;BME280;44029;52.956;4.772;2023-01-19T05:14:45;100119.06;;;6.33;100.00
55490;BME280;44029;52.956;4.772;2023-01-19T05:17:11;100099.19;;;6.32;100.00
55490;BME280;44029;52.956;4.772;2023-01-19T05:19:36;100101.56;;;6.41;100.00
55490;BME280;44029;52.956;4.772;2023-01-19T05:22:03;100111.47;;;6.47;100.00
55490;BME280;44029;52.956;4.772;2023-01-19T05:24:28;100111.13;;;6.43;100.00
55490;BME280;44029;52.956;4.772;2023-01-19T05:26:54;100122.03;;;6.31;100.00
55490;BME280;44029;52.956;4.772;2023-01-19T05:29:19;100121.06;;;6.37;100.00
55490;BME280;44029;52.956;4.772;2023-01-19T05:31:45;100129.00;;;6.39;100.00
55490;BME280;44029;52.956;4.772;2023-01-19T05:34:11;100128.53;;;6.30;100.00
55490;BME280;44029;52.956;4.772;2023-01-19T05:36:36;100128.66;;;6.35;100.00
55490;BME280;44029;52.956;4.772;2023-01-19T05:39:02;100147.69;;;6.35;100.00
55490;BME280;44029;52.956;4.772;2023-01-19T05:41:27;100146.50;;;6.43;100.00
55490;BME280;44029;52.956;4.772;2023-01-19T05:43:53;100146.38;;;6.50;100.00
55490;BME280;44029;52.956;4.772;2023-01-19T05:46:18;100148.00;;;6.51;100.00
55490;BME280;44029;52.956;4.772;2023-01-19T05:48:44;100144.13;;;6.47;100.00
55490;BME280;44029;52.956;4.772;2023-01-19T05:51:09;100133.13;;;6.53;100.00
55490;BME280;44029;52.956;4.772;2023-01-19T05:53:34;100163.97;;;6.47;100.00
55490;BME280;44029;52.956;4.772;2023-01-19T05:56:01;100160.34;;;6.42;100.00
55490;BME280;44029;52.956;4.772;2023-01-19T05:58:27;100157.41;;;6.31;100.00
55490;BME280;44029;52.956;4.772;2023-01-19T06:00:53;100161.28;;;6.24;100.00
55490;BME280;44029;52.956;4.772;2023-01-19T06:03:18;100153.63;;;6.21;100.00
55490;BME280;44029;52.956;4.772;2023-01-19T06:05:44;100159.41;;;6.24;100.00
55490;BME280;44029;52.956;4.772;2023-01-19T06:08:09;100160.13;;;6.31;100.00
55490;BME280;44029;52.956;4.772;2023-01-19T06:10:34;100174.06;;;6.23;100.00
55490;BME280;44029;52.956;4.772;2023-01-19T06:13:00;100167.22;;;6.21;100.00
55490;BME280;44029;52.956;4.772;2023-01-19T06:15:25;100159.41;;;6.24;100.00
55490;BME280;44029;52.956;4.772;2023-01-19T06:17:50;100178.09;;;6.32;100.00
55490;BME280;44029;52.956;4.772;2023-01-19T06:20:16;100178.09;;;6.44;100.00
55490;BME280;44029;52.956;4.772;2023-01-19T06:22:41;100189.19;;;6.43;100.00
55490;BME280;44029;52.956;4.772;2023-01-19T06:25:07;100189.56;;;6.46;100.00
55490;BME280;44029;52.956;4.772;2023-01-19T06:27:33;100202.59;;;6.21;100.00
55490;BME280;44029;52.956;4.772;2023-01-19T06:29:58;100196.66;;;6.12;100.00
55490;BME280;44029;52.956;4.772;2023-01-19T06:32:24;100199.28;;;6.18;100.00
55490;BME280;44029;52.956;4.772;2023-01-19T06:34:49;100213.72;;;6.07;100.00
55490;BME280;44029;52.956;4.772;2023-01-19T06:37:14;100215.47;;;6.02;100.00
55490;BME280;44029;52.956;4.772;2023-01-19T06:39:41;100215.56;;;6.07;100.00
55490;BME280;44029;52.956;4.772;2023-01-19T06:42:07;100229.16;;;6.07;100.00
55490;BME280;44029;52.956;4.772;2023-01-19T06:44:32;100227.72;;;5.92;100.00
55490;BME280;44029;52.956;4.772;2023-01-19T06:46:57;100221.59;;;5.97;100.00
55490;BME280;44029;52.956;4.772;2023-01-19T06:49:23;100225.50;;;6.01;100.00
55490;BME280;44029;52.956;4.772;2023-01-19T06:51:48;100223.63;;;6.02;100.00
55490;BME280;44029;52.956;4.772;2023-01-19T06:54:13;100220.66;;;6.03;100.00
55490;BME280;44029;52.956;4.772;2023-01-19T06:56:39;100237.47;;;6.00;100.00
55490;BME280;44029;52.956;4.772;2023-01-19T06:59:04;100224.69;;;6.00;100.00
55490;BME280;44029;52.956;4.772;2023-01-19T07:01:29;100234.75;;;6.00;100.00
55490;BME280;44029;52.956;4.772;2023-01-19T07:03:55;100238.28;;;6.12;100.00
55490;BME280;44029;52.956;4.772;2023-01-19T07:06:21;100241.00;;;6.00;100.00
55490;BME280;44029;52.956;4.772;2023-01-19T07:08:46;100241.06;;;5.94;100.00
55490;BME280;44029;52.956;4.772;2023-01-19T07:11:12;100247.38;;;6.06;100.00
55490;BME280;44029;52.956;4.772;2023-01-19T07:13:38;100246.34;;;6.07;100.00
55490;BME280;44029;52.956;4.772;2023-01-19T07:16:11;100254.13;;;6.27;100.00
55490;BME280;44029;52.956;4.772;2023-01-19T07:18:38;100253.06;;;6.28;100.00
55490;BME280;44029;52.956;4.772;2023-01-19T07:21:04;100254.94;;;6.16;100.00
55490;BME280;44029;52.956;4.772;2023-01-19T07:23:29;100254.84;;;6.11;100.00
55490;BME280;44029;52.956;4.772;2023-01-19T07:25:56;100263.00;;;6.11;100.00
55490;BME280;44029;52.956;4.772;2023-01-19T07:28:22;100267.19;;;5.95;100.00
55490;BME280;44029;52.956;4.772;2023-01-19T07:30:51;100271.03;;;6.06;100.00
55490;BME280;44029;52.956;4.772;2023-01-19T07:33:17;100270.97;;;5.94;100.00
55490;BME280;44029;52.956;4.772;2023-01-19T07:35:49;100280.97;;;6.12;100.00
55490;BME280;44029;52.956;4.772;2023-01-19T07:38:15;100279.91;;;6.13;100.00
55490;BME280;44029;52.956;4.772;2023-01-19T07:40:40;100286.75;;;6.04;100.00
55490;BME280;44029;52.956;4.772;2023-01-19T07:43:06;100288.25;;;5.99;100.00
55490;BME280;44029;52.956;4.772;2023-01-19T07:45:32;100287.09;;;5.95;100.00
55490;BME280;44029;52.956;4.772;2023-01-19T07:47:57;100296.28;;;5.94;100.00
55490;BME280;44029;52.956;4.772;2023-01-19T07:50:22;100293.78;;;5.93;100.00
55490;BME280;44029;52.956;4.772;2023-01-19T07:52:53;100293.78;;;5.93;100.00
55490;BME280;44029;52.956;4.772;2023-01-19T07:55:19;100299.47;;;5.91;100.00
55490;BME280;44029;52.956;4.772;2023-01-19T07:57:49;100309.09;;;6.06;100.00
55490;BME280;44029;52.956;4.772;2023-01-19T08:00:16;100306.38;;;6.06;100.00
55490;BME280;44029;52.956;4.772;2023-01-19T08:02:43;100311.69;;;6.00;100.00
55490;BME280;44029;52.956;4.772;2023-01-19T08:05:09;100317.50;;;6.04;100.00
55490;BME280;44029;52.956;4.772;2023-01-19T08:07:34;100314.78;;;6.16;100.00
55490;BME280;44029;52.956;4.772;2023-01-19T08:09:59;100323.38;;;6.01;100.00
55490;BME280;44029;52.956;4.772;2023-01-19T08:12:25;100315.72;;;6.10;100.00
55490;BME280;44029;52.956;4.772;2023-01-19T08:14:50;100325.06;;;6.14;100.00
55490;BME280;44029;52.956;4.772;2023-01-19T08:17:16;100326.00;;;6.08;100.00
55490;BME280;44029;52.956;4.772;2023-01-19T08:19:42;100326.88;;;5.90;100.00
55490;BME280;44029;52.956;4.772;2023-01-19T08:22:07;100326.69;;;6.03;100.00
55490;BME280;44029;52.956;4.772;2023-01-19T08:24:32;100332.69;;;5.93;100.00
55490;BME280;44029;52.956;4.772;2023-01-19T08:26:59;100331.00;;;6.11;100.00
55490;BME280;44029;52.956;4.772;2023-01-19T08:29:25;100341.22;;;5.97;100.00
55490;BME280;44029;52.956;4.772;2023-01-19T08:31:50;100342.13;;;5.91;100.00
55490;BME280;44029;52.956;4.772;2023-01-19T08:34:17;100335.41;;;5.93;100.00
55490;BME280;44029;52.956;4.772;2023-01-19T08:36:42;100344.09;;;6.02;100.00
55490;BME280;44029;52.956;4.772;2023-01-19T08:39:09;100350.84;;;6.11;100.00
55490;BME280;44029;52.956;4.772;2023-01-19T08:41:36;100344.38;;;6.24;100.00
55490;BME280;44029;52.956;4.772;2023-01-19T08:44:01;100347.81;;;6.31;100.00
55490;BME280;44029;52.956;4.772;2023-01-19T08:46:27;100354.91;;;6.21;100.00
55490;BME280;44029;52.956;4.772;2023-01-19T08:48:52;100351.84;;;6.41;100.00
55490;BME280;44029;52.956;4.772;2023-01-19T08:51:18;100347.72;;;6.50;100.00
55490;BME280;44029;52.956;4.772;2023-01-19T08:53:43;100359.38;;;6.27;100.00
55490;BME280;44029;52.956;4.772;2023-01-19T08:56:09;100361.78;;;6.47;100.00
55490;BME280;44029;52.956;4.772;2023-01-19T08:58:41;100365.09;;;6.61;100.00
55490;BME280;44029;52.956;4.772;2023-01-19T09:01:07;100376.72;;;6.56;100.00
55490;BME280;44029;52.956;4.772;2023-01-19T09:03:34;100372.56;;;6.53;100.00
55490;BME280;44029;52.956;4.772;2023-01-19T09:06:00;100373.16;;;6.79;100.00
55490;BME280;44029;52.956;4.772;2023-01-19T09:08:26;100374.44;;;6.53;100.00
55490;BME280;44029;52.956;4.772;2023-01-19T09:10:51;100378.38;;;6.69;100.00
55490;BME280;44029;52.956;4.772;2023-01-19T09:13:18;100384.75;;;6.86;100.00
55490;BME280;44029;52.956;4.772;2023-01-19T09:15:44;100385.13;;;6.90;100.00
55490;BME280;44029;52.956;4.772;2023-01-19T09:18:12;100390.09;;;6.93;100.00
55490;BME280;44029;52.956;4.772;2023-01-19T09:20:39;100389.75;;;6.77;100.00
55490;BME280;44029;52.956;4.772;2023-01-19T09:23:10;100391.88;;;6.64;100.00
55490;BME280;44029;52.956;4.772;2023-01-19T09:25:36;100404.47;;;6.34;100.00
55490;BME280;44029;52.956;4.772;2023-01-19T09:28:04;100404.38;;;6.53;100.00
55490;BME280;44029;52.956;4.772;2023-01-19T09:30:29;100400.47;;;6.49;100.00
55490;BME280;44029;52.956;4.772;2023-01-19T09:33:00;100392.72;;;6.76;100.00
55490;BME280;44029;52.956;4.772;2023-01-19T09:35:26;100390.69;;;6.60;100.00
55490;BME280;44029;52.956;4.772;2023-01-19T09:37:51;100402.34;;;6.36;100.00
55490;BME280;44029;52.956;4.772;2023-01-19T09:40:22;100401.06;;;6.51;100.00
55490;BME280;44029;52.956;4.772;2023-01-19T09:42:52;100413.03;;;6.50;100.00
55490;BME280;44029;52.956;4.772;2023-01-19T09:45:33;100404.97;;;6.43;100.00
55490;BME280;44029;52.956;4.772;2023-01-19T09:48:03;100415.47;;;6.39;100.00
55490;BME280;44029;52.956;4.772;2023-01-19T09:50:34;100413.94;;;6.44;100.00
55490;BME280;44029;52.956;4.772;2023-01-19T09:53:08;100410.56;;;6.60;100.00
55490;BME280;44029;52.956;4.772;2023-01-19T09:55:39;100414.34;;;6.83;100.00
55490;BME280;44029;52.956;4.772;2023-01-19T09:58:12;100415.31;;;7.00;100.00
55490;BME280;44029;52.956;4.772;2023-01-19T10:00:42;100421.97;;;6.92;100.00
55490;BME280;44029;52.956;4.772;2023-01-19T10:03:14;100421.34;;;7.14;100.00
55490;BME280;44029;52.956;4.772;2023-01-19T10:08:34;100432.81;;;7.16;100.00
55490;BME280;44029;52.956;4.772;2023-01-19T10:11:04;100421.34;;;7.26;100.00
55490;BME280;44029;52.956;4.772;2023-01-19T10:13:48;100427.94;;;7.53;100.00
55490;BME280;44029;52.956;4.772;2023-01-19T10:16:31;100421.75;;;7.58;100.00
55490;BME280;44029;52.956;4.772;2023-01-19T10:19:29;100436.66;;;7.79;100.00
55490;BME280;44029;52.956;4.772;2023-01-19T10:21:57;100436.81;;;7.49;100.00
55490;BME280;44029;52.956;4.772;2023-01-19T10:24:37;100447.84;;;7.54;100.00
55490;BME280;44029;52.956;4.772;2023-01-19T10:27:12;100449.09;;;7.75;100.00
55490;BME280;44029;52.956;4.772;2023-01-19T10:29:39;100449.69;;;7.77;100.00
55490;BME280;44029;52.956;4.772;2023-01-19T10:32:25;100446.09;;;8.17;100.00
55490;BME280;44029;52.956;4.772;2023-01-19T10:34:51;100457.03;;;7.88;100.00
55490;BME280;44029;52.956;4.772;2023-01-19T10:39:45;100461.78;;;7.81;100.00
55490;BME280;44029;52.956;4.772;2023-01-19T10:42:14;100467.41;;;7.51;100.00
55490;BME280;44029;52.956;4.772;2023-01-19T10:44:40;100474.03;;;7.20;100.00
55490;BME280;44029;52.956;4.772;2023-01-19T10:47:16;100467.16;;;7.29;100.00
55490;BME280;44029;52.956;4.772;2023-01-19T10:49:42;100471.69;;;7.11;100.00
55490;BME280;44029;52.956;4.772;2023-01-19T10:54:49;100472.72;;;6.75;100.00
55490;BME280;44029;52.956;4.772;2023-01-19T10:57:31;100461.84;;;6.99;100.00
55490;BME280;44029;52.956;4.772;2023-01-19T10:59:57;100455.47;;;6.93;100.00
55490;BME280;44029;52.956;4.772;2023-01-19T11:02:30;100461.00;;;7.22;100.00
55490;BME280;44029;52.956;4.772;2023-01-19T11:05:01;100462.94;;;7.33;100.00
55490;BME280;44029;52.956;4.772;2023-01-19T11:07:45;100456.50;;;7.27;100.00
55490;BME280;44029;52.956;4.772;2023-01-19T11:13:02;100459.94;;;7.46;100.00
55490;BME280;44029;52.956;4.772;2023-01-19T11:15:41;100458.13;;;7.64;100.00
55490;BME280;44029;52.956;4.772;2023-01-19T11:18:30;100464.75;;;7.68;100.00
55490;BME280;44029;52.956;4.772;2023-01-19T11:21:00;100462.66;;;7.58;100.00
55490;BME280;44029;52.956;4.772;2023-01-19T11:23:33;100465.03;;;7.54;100.00
55490;BME280;44029;52.956;4.772;2023-01-19T11:26:04;100459.69;;;7.60;100.00
55490;BME280;44029;52.956;4.772;2023-01-19T11:31:17;100469.25;;;7.74;100.00
55490;BME280;44029;52.956;4.772;2023-01-19T11:38:47;100475.09;;;7.54;100.00
55490;BME280;44029;52.956;4.772;2023-01-19T11:43:42;100476.28;;;7.70;100.00
55490;BME280;44029;52.956;4.772;2023-01-19T11:46:10;100483.28;;;7.54;100.00
55490;BME280;44029;52.956;4.772;2023-01-19T11:48:41;100479.78;;;7.82;100.00
55490;BME280;44029;52.956;4.772;2023-01-19T11:51:13;100472.88;;;7.91;100.00
55490;BME280;44029;52.956;4.772;2023-01-19T11:53:42;100465.38;;;7.70;100.00
55490;BME280;44029;52.956;4.772;2023-01-19T11:56:12;100471.53;;;7.65;100.00
55490;BME280;44029;52.956;4.772;2023-01-19T11:58:40;100467.41;;;7.63;100.00
55490;BME280;44029;52.956;4.772;2023-01-19T12:01:09;100470.97;;;7.51;100.00
55490;BME280;44029;52.956;4.772;2023-01-19T12:03:46;100460.59;;;7.77;100.00
55490;BME280;44029;52.956;4.772;2023-01-19T12:06:19;100460.16;;;7.57;100.00
55490;BME280;44029;52.956;4.772;2023-01-19T12:08:52;100469.53;;;7.49;100.00
55490;BME280;44029;52.956;4.772;2023-01-19T12:11:25;100476.41;;;7.40;100.00
55490;BME280;44029;52.956;4.772;2023-01-19T12:13:52;100467.03;;;7.47;100.00
55490;BME280;44029;52.956;4.772;2023-01-19T12:16:23;100473.00;;;7.44;100.00
55490;BME280;44029;52.956;4.772;2023-01-19T12:18:55;100468.34;;;7.45;100.00
55490;BME280;44029;52.956;4.772;2023-01-19T12:21:20;100477.47;;;7.27;100.00
55490;BME280;44029;52.956;4.772;2023-01-19T12:29:19;100474.16;;;7.25;100.00
55490;BME280;44029;52.956;4.772;2023-01-19T12:34:44;100475.25;;;7.24;100.00
55490;BME280;44029;52.956;4.772;2023-01-19T12:42:53;100479.75;;;7.18;100.00
55490;BME280;44029;52.956;4.772;2023-01-19T12:45:21;100477.03;;;7.18;100.00
55490;BME280;44029;52.956;4.772;2023-01-19T12:47:51;100475.56;;;6.92;100.00
55490;BME280;44029;52.956;4.772;2023-01-19T12:50:18;100475.72;;;7.21;100.00
55490;BME280;44029;52.956;4.772;2023-01-19T12:52:50;100475.94;;;7.31;100.00
55490;BME280;44029;52.956;4.772;2023-01-19T12:58:03;100474.06;;;7.31;100.00
55490;BME280;44029;52.956;4.772;2023-01-19T13:00:41;100478.31;;;7.39;100.00
55490;BME280;44029;52.956;4.772;2023-01-19T13:19:12;100479.47;;;7.55;100.00
55490;BME280;44029;52.956;4.772;2023-01-19T13:21:44;100479.63;;;7.48;100.00
55490;BME280;44029;52.956;4.772;2023-01-19T13:24:15;100488.25;;;7.57;100.00
55490;BME280;44029;52.956;4.772;2023-01-19T13:31:42;100488.13;;;7.64;100.00
55490;BME280;44029;52.956;4.772;2023-01-19T13:34:13;100484.59;;;7.51;100.00
55490;BME280;44029;52.956;4.772;2023-01-19T13:36:43;100481.38;;;7.31;100.00
55490;BME280;44029;52.956;4.772;2023-01-19T13:39:29;100480.78;;;7.29;100.00
55490;BME280;44029;52.956;4.772;2023-01-19T13:42:01;100485.06;;;7.25;100.00
55490;BME280;44029;52.956;4.772;2023-01-19T13:44:35;100489.69;;;7.24;100.00
55490;BME280;44029;52.956;4.772;2023-01-19T13:47:04;100484.34;;;7.06;100.00
55490;BME280;44029;52.956;4.772;2023-01-19T13:49:38;100488.53;;;7.20;100.00
55490;BME280;44029;52.956;4.772;2023-01-19T13:52:12;100490.88;;;7.16;100.00
55490;BME280;44029;52.956;4.772;2023-01-19T13:54:54;100493.13;;;7.20;100.00
55490;BME280;44029;52.956;4.772;2023-01-19T14:02:29;100482.69;;;6.93;100.00
55490;BME280;44029;52.956;4.772;2023-01-19T14:04:54;100482.81;;;6.98;100.00
55490;BME280;44029;52.956;4.772;2023-01-19T14:07:21;100493.72;;;7.10;100.00
55490;BME280;44029;52.956;4.772;2023-01-19T14:10:01;100483.63;;;7.10;100.00
55490;BME280;44029;52.956;4.772;2023-01-19T14:12:26;100486.69;;;6.78;100.00
55490;BME280;44029;52.956;4.772;2023-01-19T14:14:52;100493.88;;;6.73;100.00
55490;BME280;44029;52.956;4.772;2023-01-19T14:17:23;100495.47;;;6.92;100.00